Time;durP1;ratioP1;P1;durP2;ratioP2;P2;SDS_P1;SDS_P2;PMS_P1;PMS_P2;Temp;Humidity;BMP_temperature;BMP_pressure;BME280_temperature;BME280_humidity;BME280_pressure;Samples;Min_cycle;Max_cycle;Signal;HPM_P1;HPM_P2
2022/01/07 00:00:50;;;;;;;18.77;7.15;;;3.80;99.90;;;;;;4961127;29;20027;-89
2022/01/07 00:03:18;;;;;;;14.75;5.82;;;3.80;99.90;;;;;;4961286;29;20026;-90
2022/01/07 00:05:44;;;;;;;14.18;6.03;;;3.90;99.90;;;;;;4961385;29;20071;-88
2022/01/07 00:08:09;;;;;;;11.55;5.45;;;3.80;99.90;;;;;;4961484;28;20034;-88
2022/01/07 00:10:35;;;;;;;13.65;4.93;;;3.90;99.90;;;;;;4961465;29;20556;-89
2022/01/07 00:13:01;;;;;;;14.32;5.72;;;3.80;99.90;;;;;;4961058;28;20027;-89
2022/01/07 00:15:27;;;;;;;14.10;4.80;;;3.90;99.90;;;;;;4960605;29;20038;-89
2022/01/07 00:17:53;;;;;;;14.75;5.32;;;3.90;99.90;;;;;;4961179;29;20031;-89
2022/01/07 00:20:19;;;;;;;18.38;5.65;;;3.90;99.90;;;;;;4963013;28;20025;-89
2022/01/07 00:22:47;;;;;;;13.95;5.90;;;3.80;99.90;;;;;;4977548;28;20037;-89
2022/01/07 00:25:14;;;;;;;14.20;5.90;;;3.90;99.90;;;;;;4977136;28;20503;-89
2022/01/07 00:27:40;;;;;;;14.10;5.78;;;3.80;99.90;;;;;;4977229;28;20065;-89
2022/01/07 00:30:08;;;;;;;13.05;5.90;;;3.80;99.90;;;;;;4976959;28;20027;-89
2022/01/07 00:32:34;;;;;;;13.10;6.18;;;3.70;99.90;;;;;;4970973;28;20055;-88
2022/01/07 00:34:59;;;;;;;14.18;5.82;;;3.60;99.90;;;;;;4957613;29;20429;-89
2022/01/07 00:37:25;;;;;;;16.55;5.45;;;3.60;99.90;;;;;;4957823;29;20062;-90
2022/01/07 00:39:52;;;;;;;12.30;5.10;;;3.50;99.90;;;;;;4957830;29;20038;-88
2022/01/07 00:42:18;;;;;;;14.13;5.88;;;3.50;99.90;;;;;;4958001;29;20071;-89
2022/01/07 00:44:44;;;;;;;9.63;5.43;;;3.40;99.90;;;;;;4958173;29;20024;-89
2022/01/07 00:47:10;;;;;;;13.60;6.32;;;3.30;99.90;;;;;;4958029;29;20046;-89
2022/01/07 00:49:35;;;;;;;12.65;5.70;;;3.30;99.90;;;;;;4957855;29;20034;-89
2022/01/07 00:52:01;;;;;;;13.57;5.78;;;3.30;99.90;;;;;;4959582;29;20023;-88
2022/01/07 00:54:28;;;;;;;17.70;6.80;;;3.20;99.90;;;;;;4971163;29;20042;-88
2022/01/07 00:56:54;;;;;;;15.23;6.47;;;3.20;99.90;;;;;;4967089;29;20020;-90
2022/01/07 00:59:19;;;;;;;13.35;6.20;;;3.10;99.90;;;;;;4970651;29;20019;-90
2022/01/07 01:01:46;;;;;;;13.07;6.20;;;3.10;99.90;;;;;;4968169;29;20023;-91
2022/01/07 01:04:12;;;;;;;14.32;6.13;;;3.10;99.90;;;;;;4963998;29;20031;-89
2022/01/07 01:06:40;;;;;;;15.55;7.13;;;3.10;99.90;;;;;;4968447;28;20031;-90
2022/01/07 01:09:07;;;;;;;14.20;7.10;;;3.00;99.90;;;;;;4959272;29;20024;-89
2022/01/07 01:11:33;;;;;;;14.25;7.40;;;3.00;99.90;;;;;;4957326;29;20019;-90
2022/01/07 01:13:59;;;;;;;15.77;7.40;;;3.00;99.90;;;;;;4957192;29;20035;-91
2022/01/07 01:16:25;;;;;;;17.52;7.38;;;2.90;99.90;;;;;;4957854;29;20028;-90
2022/01/07 01:18:51;;;;;;;15.60;7.72;;;2.90;99.90;;;;;;4958086;29;20035;-91
2022/01/07 01:21:16;;;;;;;14.45;7.72;;;2.80;99.90;;;;;;4957978;29;20505;-90
2022/01/07 01:23:45;;;;;;;14.27;6.80;;;2.80;99.90;;;;;;4957875;29;20027;-90
2022/01/07 01:26:13;;;;;;;15.57;7.97;;;2.80;99.90;;;;;;4957723;29;20080;-90
2022/01/07 01:28:39;;;;;;;15.43;7.43;;;2.70;99.90;;;;;;4957270;29;20090;-89
2022/01/07 01:31:05;;;;;;;17.35;7.50;;;2.70;99.90;;;;;;4956500;28;20155;-90
2022/01/07 01:33:30;;;;;;;19.40;9.55;;;2.70;99.90;;;;;;4956933;29;20023;-91
2022/01/07 01:35:56;;;;;;;18.10;8.30;;;2.70;99.90;;;;;;4956762;29;20047;-90
2022/01/07 01:38:22;;;;;;;16.17;7.85;;;2.70;99.90;;;;;;4957065;29;20022;-90
2022/01/07 01:40:47;;;;;;;16.70;8.40;;;2.70;99.90;;;;;;4957313;29;20485;-91
2022/01/07 01:43:13;;;;;;;20.08;8.90;;;2.70;99.90;;;;;;4956844;29;20033;-91
2022/01/07 01:45:39;;;;;;;19.05;9.55;;;2.70;99.90;;;;;;4956806;29;20031;-92
2022/01/07 01:48:05;;;;;;;20.85;9.35;;;2.70;99.90;;;;;;4956907;29;20031;-91
2022/01/07 01:50:30;;;;;;;18.17;8.00;;;2.60;99.90;;;;;;4957294;29;20027;-90
2022/01/07 01:52:56;;;;;;;17.08;8.70;;;2.70;99.90;;;;;;4957311;29;20385;-90
2022/01/07 01:55:25;;;;;;;18.88;8.10;;;2.70;99.90;;;;;;4957255;29;20058;-88
2022/01/07 01:57:52;;;;;;;19.70;7.70;;;2.70;99.90;;;;;;4956499;29;20034;-91
2022/01/07 02:00:19;;;;;;;15.75;7.97;;;2.70;99.90;;;;;;4940637;29;20029;-90
2022/01/07 02:02:45;;;;;;;15.18;7.68;;;2.70;99.90;;;;;;4956618;29;20063;-90
2022/01/07 02:05:11;;;;;;;16.63;7.95;;;2.70;99.90;;;;;;4956151;29;20062;-90
2022/01/07 02:07:41;;;;;;;16.65;7.05;;;2.70;99.90;;;;;;4956262;29;20114;-91
2022/01/07 02:10:15;;;;;;;15.98;7.60;;;2.70;99.90;;;;;;4956417;29;20110;-90
2022/01/07 02:12:42;;;;;;;20.05;8.73;;;2.80;99.90;;;;;;4956383;29;20117;-89
2022/01/07 02:15:11;;;;;;;17.23;8.90;;;2.70;99.90;;;;;;4956457;29;20429;-90
2022/01/07 02:17:40;;;;;;;16.98;7.43;;;2.80;99.90;;;;;;4956704;29;20031;-90
2022/01/07 02:20:07;;;;;;;19.05;8.25;;;2.80;99.90;;;;;;4956758;29;20030;-91
2022/01/07 02:22:33;;;;;;;22.25;8.38;;;2.80;99.90;;;;;;4958133;29;20019;-91
2022/01/07 02:24:59;;;;;;;22.95;9.05;;;2.80;99.90;;;;;;4958162;29;20038;-90
2022/01/07 02:27:25;;;;;;;16.02;7.47;;;2.80;99.90;;;;;;4961490;29;20031;-91
2022/01/07 02:29:51;;;;;;;18.98;8.23;;;2.80;99.90;;;;;;4968524;28;20395;-90
2022/01/07 02:32:18;;;;;;;20.15;8.07;;;2.70;99.90;;;;;;4968689;29;20023;-90
2022/01/07 02:34:45;;;;;;;18.45;7.47;;;2.80;99.90;;;;;;4968123;29;20031;-90
2022/01/07 02:37:12;;;;;;;12.27;6.85;;;2.80;99.90;;;;;;4976372;29;20018;-88
2022/01/07 02:39:38;;;;;;;15.93;8.02;;;2.90;99.90;;;;;;4965426;28;20023;-91
2022/01/07 02:42:05;;;;;;;13.70;7.07;;;2.80;99.90;;;;;;4959227;28;20026;-88
2022/01/07 02:44:31;;;;;;;13.73;6.82;;;2.90;99.90;;;;;;4972798;29;20042;-88
2022/01/07 02:46:57;;;;;;;19.35;7.65;;;2.90;99.90;;;;;;4974468;29;20199;-87
2022/01/07 02:49:23;;;;;;;10.70;6.35;;;2.90;99.90;;;;;;4976701;29;20086;-88
2022/01/07 02:51:48;;;;;;;12.85;5.97;;;2.90;99.90;;;;;;4978105;29;20039;-88
2022/01/07 02:54:14;;;;;;;16.33;6.45;;;2.90;99.90;;;;;;4979701;28;20027;-90
2022/01/07 02:56:40;;;;;;;13.23;5.82;;;2.90;99.90;;;;;;4979893;28;20051;-91
2022/01/07 02:59:07;;;;;;;14.73;6.18;;;2.90;99.90;;;;;;4979709;28;20032;-90
2022/01/07 03:01:33;;;;;;;14.00;6.10;;;2.90;99.90;;;;;;4979726;28;20015;-90
2022/01/07 03:03:59;;;;;;;11.38;6.15;;;2.90;99.90;;;;;;4979426;28;20011;-89
2022/01/07 03:06:25;;;;;;;14.48;6.53;;;2.90;99.90;;;;;;4978728;28;20055;-88
2022/01/07 03:08:51;;;;;;;12.77;6.78;;;2.90;99.90;;;;;;4978724;28;20034;-89
2022/01/07 03:11:18;;;;;;;16.00;5.97;;;2.80;99.90;;;;;;4978679;28;20031;-89
2022/01/07 03:13:44;;;;;;;16.60;7.15;;;2.90;99.90;;;;;;4975555;28;20059;-89
2022/01/07 03:16:10;;;;;;;10.52;5.97;;;2.90;99.90;;;;;;4970588;29;20038;-91
2022/01/07 03:18:36;;;;;;;17.35;7.53;;;2.90;99.90;;;;;;4966240;29;20070;-92
2022/01/07 03:21:03;;;;;;;17.38;5.82;;;2.90;99.90;;;;;;4956574;29;20031;-88
2022/01/07 03:23:30;;;;;;;19.75;6.85;;;2.90;99.90;;;;;;4956699;29;20027;-92
2022/01/07 03:25:55;;;;;;;12.98;6.72;;;2.80;99.90;;;;;;4956564;28;20030;-90
2022/01/07 03:28:21;;;;;;;14.18;6.75;;;2.90;99.90;;;;;;4956462;28;20027;-91
2022/01/07 03:30:49;;;;;;;14.73;7.32;;;2.90;99.90;;;;;;4956506;28;20114;-90
2022/01/07 03:33:14;;;;;;;12.30;6.32;;;2.90;99.90;;;;;;4940810;29;20049;-91
2022/01/07 03:35:40;;;;;;;16.27;6.63;;;2.90;99.90;;;;;;4956989;28;20035;-91
2022/01/07 03:38:06;;;;;;;10.02;5.88;;;2.90;99.90;;;;;;4959296;28;20035;-90
2022/01/07 03:40:33;;;;;;;11.30;5.40;;;2.90;99.90;;;;;;4965679;28;20030;-90
2022/01/07 03:42:59;;;;;;;14.50;6.70;;;2.90;99.90;;;;;;4949273;29;20039;-93
2022/01/07 03:45:25;;;;;;;14.27;6.43;;;2.90;99.90;;;;;;4967122;28;20015;-94
2022/01/07 03:47:52;;;;;;;10.75;6.15;;;2.80;99.90;;;;;;4950049;29;20028;-90
2022/01/07 03:50:20;;;;;;;12.82;5.80;;;2.90;99.90;;;;;;4965517;28;20028;-90
2022/01/07 03:52:46;;;;;;;13.60;6.10;;;2.80;99.90;;;;;;4963044;28;20031;-91
2022/01/07 03:55:14;;;;;;;12.57;6.22;;;2.80;99.90;;;;;;4967503;28;20051;-91
2022/01/07 03:57:41;;;;;;;8.43;4.95;;;2.80;99.90;;;;;;4971688;28;20050;-91
2022/01/07 04:00:09;;;;;;;12.73;5.78;;;2.80;99.90;;;;;;4973853;28;20027;-92
2022/01/07 04:02:35;;;;;;;11.57;5.50;;;2.80;99.90;;;;;;4972550;28;20061;-92
2022/01/07 04:05:01;;;;;;;10.10;5.82;;;2.90;99.90;;;;;;4961422;28;20031;-91
2022/01/07 04:07:26;;;;;;;11.85;6.28;;;2.80;99.90;;;;;;4964715;28;20031;-92
2022/01/07 04:09:52;;;;;;;11.38;6.22;;;2.80;99.90;;;;;;4973129;28;20034;-92
2022/01/07 04:12:18;;;;;;;10.77;5.88;;;2.80;99.90;;;;;;4969063;28;20031;-91
2022/01/07 04:14:43;;;;;;;10.20;5.18;;;2.80;99.90;;;;;;4961939;28;20027;-92
2022/01/07 04:17:09;;;;;;;10.20;5.28;;;2.80;99.90;;;;;;4962690;28;20046;-93
2022/01/07 04:19:34;;;;;;;6.88;5.15;;;2.80;99.90;;;;;;4971579;28;20028;-91
2022/01/07 04:22:00;;;;;;;11.85;6.10;;;2.80;99.90;;;;;;4972770;28;20030;-91
2022/01/07 04:24:26;;;;;;;10.98;5.95;;;2.80;99.90;;;;;;4967553;29;20512;-91
2022/01/07 04:26:52;;;;;;;12.55;6.57;;;2.80;99.90;;;;;;4962640;28;20038;-91
2022/01/07 04:29:18;;;;;;;13.05;6.28;;;2.80;99.90;;;;;;4967814;28;20051;-93
2022/01/07 04:31:43;;;;;;;10.38;6.40;;;2.90;99.90;;;;;;4975703;28;20020;-91
2022/01/07 04:34:09;;;;;;;11.35;6.68;;;2.80;99.90;;;;;;4969761;28;20027;-92
2022/01/07 04:36:36;;;;;;;15.93;7.30;;;2.80;99.90;;;;;;4967025;28;20081;-91
2022/01/07 04:39:02;;;;;;;11.05;6.60;;;2.70;99.90;;;;;;4972422;28;20027;-92
2022/01/07 04:41:28;;;;;;;8.77;6.63;;;2.60;99.90;;;;;;4972967;28;20050;-90
2022/01/07 04:43:54;;;;;;;12.77;7.22;;;2.60;99.90;;;;;;4971485;28;20478;-91
2022/01/07 04:46:20;;;;;;;9.98;5.93;;;2.70;99.90;;;;;;4977587;28;20042;-91
2022/01/07 04:48:45;;;;;;;9.40;6.25;;;2.60;99.90;;;;;;4972980;28;20097;-91
2022/01/07 04:51:12;;;;;;;9.43;6.07;;;2.60;99.90;;;;;;4963545;28;20551;-92
2022/01/07 04:53:38;;;;;;;9.00;5.57;;;2.60;99.90;;;;;;4959034;28;20023;-91
2022/01/07 04:56:03;;;;;;;12.75;6.55;;;2.60;99.90;;;;;;4958650;28;20454;-92
2022/01/07 04:58:29;;;;;;;10.85;7.55;;;2.70;99.90;;;;;;4958759;28;20074;-92
2022/01/07 05:00:55;;;;;;;9.32;5.93;;;2.70;99.90;;;;;;4958980;28;20086;-92
2022/01/07 05:03:21;;;;;;;12.23;7.63;;;2.70;99.90;;;;;;4959307;28;20131;-92
2022/01/07 05:05:52;;;;;;;14.77;7.30;;;2.70;99.90;;;;;;4957669;28;20043;-93
2022/01/07 05:08:19;;;;;;;13.90;8.18;;;2.70;99.90;;;;;;4958389;28;20474;-92
2022/01/07 05:10:45;;;;;;;10.23;6.45;;;2.70;99.90;;;;;;4958406;28;20031;-92
2022/01/07 05:13:11;;;;;;;13.52;7.80;;;2.80;99.90;;;;;;4958208;28;20024;-90
2022/01/07 05:15:36;;;;;;;12.43;7.63;;;2.80;99.90;;;;;;4958362;28;20027;-92
2022/01/07 05:18:02;;;;;;;14.63;8.25;;;2.90;99.90;;;;;;4958838;28;20039;-94
2022/01/07 05:20:28;;;;;;;12.82;7.68;;;2.80;99.90;;;;;;4957538;29;20045;-93
2022/01/07 05:22:54;;;;;;;11.73;7.85;;;2.90;99.90;;;;;;4957308;28;20022;-93
2022/01/07 05:25:21;;;;;;;10.98;8.23;;;2.90;99.90;;;;;;4957600;28;20102;-91
2022/01/07 05:27:46;;;;;;;12.88;8.15;;;2.90;99.90;;;;;;4957980;28;20023;-91
2022/01/07 05:30:14;;;;;;;12.65;7.40;;;2.90;99.90;;;;;;4957496;28;20034;-92
2022/01/07 05:32:40;;;;;;;14.77;8.43;;;2.90;99.90;;;;;;4957831;28;20065;-90
2022/01/07 05:35:07;;;;;;;13.60;8.25;;;3.00;99.90;;;;;;4957694;28;20062;-91
2022/01/07 05:37:34;;;;;;;14.38;9.27;;;3.00;99.90;;;;;;4957382;28;20024;-91
2022/01/07 05:39:59;;;;;;;12.40;8.63;;;3.00;99.90;;;;;;4957150;29;20023;-91
2022/01/07 05:42:25;;;;;;;11.55;8.10;;;3.00;99.90;;;;;;4957555;28;20034;-91
2022/01/07 05:44:51;;;;;;;11.43;9.23;;;3.10;99.90;;;;;;4957034;28;20028;-91
2022/01/07 05:47:17;;;;;;;11.88;9.05;;;3.10;99.90;;;;;;4957040;28;20035;-93
2022/01/07 05:49:43;;;;;;;11.23;9.13;;;3.10;99.90;;;;;;4957276;28;20027;-90
2022/01/07 05:52:09;;;;;;;11.73;9.52;;;3.10;99.90;;;;;;4957501;28;20038;-91
2022/01/07 05:54:34;;;;;;;12.00;8.52;;;3.20;99.90;;;;;;4956792;28;20065;-91
2022/01/07 05:57:00;;;;;;;13.27;9.40;;;3.20;99.90;;;;;;4956369;29;20099;-92
2022/01/07 05:59:26;;;;;;;17.13;10.68;;;3.20;99.90;;;;;;4956846;28;20030;-92
2022/01/07 06:01:52;;;;;;;13.68;10.32;;;3.30;99.90;;;;;;4956340;29;20027;-90
2022/01/07 06:04:18;;;;;;;15.88;11.23;;;3.30;99.90;;;;;;4957275;28;20485;-91
2022/01/07 06:06:44;;;;;;;15.43;10.65;;;3.30;99.90;;;;;;4957226;28;20066;-91
2022/01/07 06:09:10;;;;;;;13.63;10.13;;;3.30;99.90;;;;;;4956603;28;20027;-92
2022/01/07 06:11:36;;;;;;;14.07;9.90;;;3.30;99.90;;;;;;4957071;28;20114;-91
2022/01/07 06:14:01;;;;;;;14.07;10.55;;;3.40;99.90;;;;;;4957203;28;20031;-91
2022/01/07 06:16:27;;;;;;;14.85;10.52;;;3.40;99.90;;;;;;4956511;28;20023;-92
2022/01/07 06:18:58;;;;;;;16.60;11.82;;;3.40;99.90;;;;;;4956023;28;20497;-92
2022/01/07 06:21:25;;;;;;;17.98;12.43;;;3.50;99.90;;;;;;4956864;28;20015;-91
2022/01/07 06:23:51;;;;;;;18.90;14.48;;;3.50;99.90;;;;;;4956475;28;20035;-93
2022/01/07 06:26:18;;;;;;;17.83;13.52;;;3.60;99.90;;;;;;4956564;29;20370;-91
2022/01/07 06:28:44;;;;;;;21.00;13.00;;;3.60;99.90;;;;;;4956028;28;20034;-91
2022/01/07 06:31:10;;;;;;;19.60;14.85;;;3.60;99.90;;;;;;4956367;28;20024;-92
2022/01/07 06:33:35;;;;;;;21.75;14.48;;;3.60;99.90;;;;;;4955988;28;20027;-91
2022/01/07 06:36:01;;;;;;;20.05;13.85;;;3.70;99.90;;;;;;4956192;28;20035;-91
2022/01/07 06:38:27;;;;;;;19.08;14.18;;;3.70;99.90;;;;;;4956106;28;20034;-92
2022/01/07 06:40:52;;;;;;;20.65;14.98;;;3.70;99.90;;;;;;4956212;29;20015;-91
2022/01/07 06:43:18;;;;;;;21.48;15.73;;;3.70;99.90;;;;;;4956781;28;20023;-92
2022/01/07 06:45:44;;;;;;;21.77;15.68;;;3.70;99.90;;;;;;4955996;28;20113;-92
2022/01/07 06:48:10;;;;;;;22.23;15.15;;;3.80;99.90;;;;;;4956125;28;20184;-91
2022/01/07 06:50:35;;;;;;;22.63;15.52;;;3.80;99.90;;;;;;4956530;28;20023;-92
2022/01/07 06:53:01;;;;;;;25.23;15.48;;;3.80;99.90;;;;;;4956059;28;20090;-93
2022/01/07 06:55:26;;;;;;;24.00;14.98;;;3.80;99.90;;;;;;4956201;28;20062;-91
2022/01/07 06:57:54;;;;;;;25.27;16.23;;;3.90;99.90;;;;;;4956059;28;20030;-93
2022/01/07 07:00:20;;;;;;;26.13;16.55;;;3.90;99.90;;;;;;4956217;28;20027;-93
2022/01/07 07:02:46;;;;;;;19.10;15.73;;;3.90;99.90;;;;;;4956011;28;20023;-91
2022/01/07 07:05:11;;;;;;;23.88;17.05;;;3.90;99.90;;;;;;4955738;28;20384;-91
2022/01/07 07:07:37;;;;;;;22.27;16.30;;;3.90;99.90;;;;;;4956814;28;20043;-91
2022/01/07 07:10:03;;;;;;;22.00;16.85;;;4.00;99.90;;;;;;4956218;28;20057;-91
2022/01/07 07:12:29;;;;;;;27.48;17.85;;;4.00;99.90;;;;;;4956156;28;20050;-92
2022/01/07 07:14:55;;;;;;;21.83;16.05;;;4.00;99.90;;;;;;4957334;28;20469;-91
2022/01/07 07:17:20;;;;;;;22.27;16.42;;;4.00;99.90;;;;;;4958396;29;20038;-92
2022/01/07 07:19:47;;;;;;;26.17;16.88;;;4.00;99.90;;;;;;4974388;28;20019;-93
2022/01/07 07:22:15;;;;;;;23.33;16.33;;;4.00;99.90;;;;;;4975732;28;20041;-92
2022/01/07 07:24:41;;;;;;;24.63;18.23;;;4.00;99.90;;;;;;4962013;28;20028;-92
2022/01/07 07:27:07;;;;;;;26.33;17.67;;;4.00;99.90;;;;;;4974547;28;20131;-91
2022/01/07 07:29:33;;;;;;;21.25;17.25;;;4.10;99.90;;;;;;4966138;28;20038;-91
2022/01/07 07:32:01;;;;;;;27.73;16.80;;;4.10;99.90;;;;;;4959757;29;20549;-92
2022/01/07 07:37:05;;;;;;;24.27;17.60;;;4.10;99.90;;;;;;4960653;28;20028;-92
2022/01/07 07:39:31;;;;;;;24.17;17.83;;;4.10;99.90;;;;;;4959538;28;20020;-91
2022/01/07 07:41:56;;;;;;;28.80;19.45;;;4.20;99.90;;;;;;4959177;28;20030;-92
2022/01/07 07:44:22;;;;;;;24.27;17.50;;;4.20;99.90;;;;;;4958989;29;20109;-91
2022/01/07 07:46:48;;;;;;;28.92;17.95;;;4.20;99.90;;;;;;4958736;28;20035;-92
2022/01/07 07:49:14;;;;;;;26.15;17.85;;;4.20;99.90;;;;;;4958991;28;20026;-90
2022/01/07 07:51:41;;;;;;;29.58;17.70;;;4.30;99.90;;;;;;4958516;28;20031;-91
2022/01/07 07:54:08;;;;;;;28.77;16.58;;;4.30;99.90;;;;;;4958430;28;20043;-91
2022/01/07 07:56:34;;;;;;;28.90;18.52;;;4.30;99.90;;;;;;4958826;28;20034;-92
2022/01/07 07:59:01;;;;;;;26.45;18.77;;;4.30;99.90;;;;;;4958654;28;20019;-93
2022/01/07 08:01:27;;;;;;;24.70;17.15;;;4.30;99.90;;;;;;4958588;29;20504;-93
2022/01/07 08:03:53;;;;;;;26.25;17.23;;;4.30;99.90;;;;;;4958409;28;20027;-92
2022/01/07 08:06:18;;;;;;;29.33;19.38;;;4.40;99.90;;;;;;4958293;28;20051;-92
2022/01/07 08:08:46;;;;;;;24.90;18.02;;;4.40;99.90;;;;;;4960390;28;20382;-94
2022/01/07 08:11:13;;;;;;;25.40;18.05;;;4.40;99.90;;;;;;4959605;28;20035;-92
2022/01/07 08:16:26;;;;;;;29.05;17.63;;;4.40;99.90;;;;;;4962598;29;20057;-93
2022/01/07 08:18:55;;;;;;;25.15;17.05;;;4.30;99.90;;;;;;4962527;28;20045;-92
2022/01/07 08:21:24;;;;;;;26.05;17.80;;;4.40;99.90;;;;;;4964081;28;20095;-92
2022/01/07 08:23:53;;;;;;;25.02;16.63;;;4.40;99.90;;;;;;4967138;28;20015;-93
2022/01/07 08:26:20;;;;;;;27.92;17.48;;;4.40;99.90;;;;;;4970694;29;20043;-92
2022/01/07 08:28:53;;;;;;;29.17;18.33;;;4.40;99.90;;;;;;4974107;28;20035;-93
2022/01/07 08:36:34;;;;;;;26.35;18.52;;;4.60;99.90;;;;;;4971677;29;20104;-93
2022/01/07 08:39:00;;;;;;;27.92;17.73;;;4.50;99.90;;;;;;4961318;28;20090;-94
2022/01/07 08:41:27;;;;;;;25.60;18.35;;;4.50;99.90;;;;;;4958951;28;20070;-92
2022/01/07 08:43:54;;;;;;;26.35;18.20;;;4.50;99.90;;;;;;4958280;28;20020;-93
2022/01/07 08:46:20;;;;;;;27.02;17.67;;;4.60;99.90;;;;;;4957471;28;20130;-92
2022/01/07 08:48:45;;;;;;;26.17;18.92;;;4.60;99.90;;;;;;4958128;28;20045;-92
2022/01/07 08:51:11;;;;;;;29.25;19.15;;;4.60;99.90;;;;;;4955681;28;20098;-93
2022/01/07 08:53:37;;;;;;;28.10;17.92;;;4.60;99.90;;;;;;4956410;28;20496;-92
2022/01/07 08:56:05;;;;;;;25.02;17.83;;;4.70;99.90;;;;;;4958874;28;20396;-92
2022/01/07 08:58:31;;;;;;;28.35;18.85;;;4.70;99.90;;;;;;4957639;28;20026;-91
2022/01/07 09:00:56;;;;;;;27.02;19.08;;;4.70;99.90;;;;;;4956332;28;20035;-89
2022/01/07 09:03:23;;;;;;;31.30;20.50;;;4.70;99.90;;;;;;4955711;28;20027;-89
2022/01/07 09:05:49;;;;;;;22.50;17.02;;;4.80;99.90;;;;;;4955059;28;20098;-89
2022/01/07 09:08:14;;;;;;;22.48;16.65;;;4.80;99.90;;;;;;4956439;28;20372;-91
2022/01/07 09:10:41;;;;;;;26.13;17.25;;;4.80;99.90;;;;;;4956916;28;20362;-91
2022/01/07 09:13:07;;;;;;;23.92;17.35;;;4.90;99.90;;;;;;4957239;28;20026;-90
2022/01/07 09:15:33;;;;;;;26.13;18.65;;;4.80;99.90;;;;;;4956756;28;20027;-90
2022/01/07 09:17:59;;;;;;;25.15;18.58;;;4.90;99.90;;;;;;4958202;28;20090;-91
2022/01/07 09:20:25;;;;;;;25.08;17.77;;;4.90;99.90;;;;;;4956679;28;20030;-91
2022/01/07 09:22:51;;;;;;;24.42;18.08;;;4.90;99.90;;;;;;4956907;29;20087;-91
2022/01/07 09:25:17;;;;;;;23.88;18.02;;;4.90;99.90;;;;;;4956646;28;20485;-93
2022/01/07 09:27:43;;;;;;;20.75;16.02;;;4.90;99.90;;;;;;4957276;29;20051;-91
2022/01/07 09:30:11;;;;;;;21.98;16.67;;;4.90;99.90;;;;;;4941926;29;20039;-93
2022/01/07 09:32:37;;;;;;;23.70;16.20;;;4.90;99.90;;;;;;4962800;29;20019;-91
2022/01/07 09:35:03;;;;;;;23.45;16.88;;;4.90;99.90;;;;;;4963890;29;20041;-88
2022/01/07 09:37:29;;;;;;;19.55;15.73;;;4.90;99.90;;;;;;4961789;28;20027;-91
2022/01/07 09:39:55;;;;;;;20.60;15.50;;;5.00;99.90;;;;;;4962784;28;20045;-94
2022/01/07 09:42:21;;;;;;;26.63;18.50;;;5.10;99.90;;;;;;4958082;28;20500;-92
2022/01/07 09:44:48;;;;;;;23.63;16.75;;;5.20;99.90;;;;;;4957817;28;20027;-93
2022/01/07 09:47:14;;;;;;;27.15;18.38;;;5.20;99.90;;;;;;4956481;29;20038;-91
2022/01/07 09:49:41;;;;;;;22.13;17.83;;;5.20;99.90;;;;;;4957486;29;20628;-92
2022/01/07 09:52:08;;;;;;;24.02;17.13;;;5.20;99.90;;;;;;4956096;28;20106;-92
2022/01/07 09:54:37;;;;;;;24.20;17.67;;;5.20;99.90;;;;;;4963522;28;20047;-88
2022/01/07 09:57:06;;;;;;;24.85;17.52;;;5.20;99.90;;;;;;4959542;28;20098;-91
2022/01/07 09:59:36;;;;;;;21.10;17.10;;;5.20;99.90;;;;;;4957066;28;20027;-91
2022/01/07 10:02:09;;;;;;;23.35;16.75;;;5.20;99.90;;;;;;4967758;29;20015;-93
2022/01/07 10:04:36;;;;;;;29.60;17.45;;;5.30;99.90;;;;;;4976346;28;20035;-94
2022/01/07 10:07:19;;;;;;;25.25;19.02;;;5.40;99.90;;;;;;4975304;29;20039;-94
2022/01/07 10:09:54;;;;;;;;;;;5.50;99.90;;;;;;4976920;28;20042;-90
2022/01/07 10:12:20;;;;;;;26.50;17.10;;;5.60;99.90;;;;;;4967021;29;19934;-90
2022/01/07 10:17:20;;;;;;;24.15;17.13;;;6.00;99.90;;;;;;2506258;23;20033;-92
2022/01/07 10:19:50;;;;;;;21.20;16.70;;;6.10;99.90;;;;;;4966090;28;20454;-93
2022/01/07 10:22:19;;;;;;;21.35;16.73;;;6.10;99.90;;;;;;4959568;29;20393;-92
2022/01/07 10:24:59;;;;;;;26.15;16.00;;;6.20;99.90;;;;;;4969951;28;20031;-95
2022/01/07 10:27:40;;;;;;;22.60;16.17;;;6.30;99.90;;;;;;4978265;28;20529;-94
2022/01/07 10:30:16;;;;;;;26.30;17.75;;;6.30;99.90;;;;;;4981124;28;20833;-93
2022/01/07 10:32:42;;;;;;;24.02;16.38;;;6.30;99.90;;;;;;4977934;28;20118;-93
2022/01/07 10:35:16;;;;;;;25.40;15.90;;;6.30;99.90;;;;;;4979452;28;20015;-94
2022/01/07 10:37:46;;;;;;;20.70;14.65;;;6.20;99.90;;;;;;4964818;28;20370;-94
2022/01/07 10:40:22;;;;;;;19.02;14.45;;;6.10;99.90;;;;;;4960852;28;20028;-92
2022/01/07 10:42:53;;;;;;;25.98;15.60;;;6.00;99.90;;;;;;4960544;28;20035;-93
2022/01/07 17:56:08;;;;;;;4.88;1.77;;;3.40;99.90;;;;;;5010571;23;20077;-89
2022/01/07 17:58:33;;;;;;;7.05;1.95;;;3.30;99.90;;;;;;4999509;28;20093;-88
2022/01/07 18:01:05;;;;;;;5.60;2.22;;;3.20;99.90;;;;;;4999632;28;20480;-89
2022/01/07 18:03:31;;;;;;;4.03;1.90;;;3.20;99.90;;;;;;5003771;28;20057;-91
2022/01/07 18:05:56;;;;;;;7.43;2.60;;;3.30;99.90;;;;;;5010539;28;20038;-91
2022/01/07 18:08:22;;;;;;;5.35;3.13;;;3.20;99.90;;;;;;5014267;28;20033;-88
2022/01/07 18:10:50;;;;;;;7.55;3.05;;;3.20;99.90;;;;;;4999405;28;20100;-88
2022/01/07 18:13:18;;;;;;;5.03;2.80;;;3.20;99.90;;;;;;5034528;28;20021;-88
2022/01/07 18:15:43;;;;;;;6.50;3.13;;;3.30;99.90;;;;;;5016162;28;20025;-90
2022/01/07 18:18:09;;;;;;;5.88;2.85;;;3.30;99.90;;;;;;5011862;28;20009;-91
2022/01/07 18:20:42;;;;;;;5.50;2.90;;;3.30;99.90;;;;;;5002824;28;20061;-88
2022/01/07 18:23:11;;;;;;;6.68;2.25;;;3.30;99.90;;;;;;4991417;28;20088;-92
2022/01/07 18:35:39;;;;;;;4.60;1.92;;;3.00;99.90;;;;;;5010358;23;20054;-90
2022/01/07 19:11:02;;;;;;;7.55;5.10;;;2.50;99.90;;;;;;5146314;23;20165;-93
2022/01/07 19:13:28;;;;;;;8.65;6.22;;;2.50;99.90;;;;;;4999055;28;20463;-90
2022/01/07 19:16:00;;;;;;;10.40;6.95;;;2.50;99.90;;;;;;5000935;28;20046;-92
2022/01/07 19:18:26;;;;;;;9.75;6.80;;;2.40;99.90;;;;;;5000463;28;20037;-90
2022/01/07 19:20:53;;;;;;;10.55;7.63;;;2.50;99.90;;;;;;4998366;28;20022;-93
2022/01/07 19:23:20;;;;;;;15.15;7.97;;;2.40;99.90;;;;;;5002789;28;20387;-91
2022/01/07 19:25:48;;;;;;;13.88;9.10;;;2.40;99.90;;;;;;5000843;28;20050;-91
2022/01/07 19:28:18;;;;;;;13.90;9.38;;;2.40;99.90;;;;;;5004581;28;20034;-92
2022/01/07 19:34:15;;;;;;;12.57;8.23;;;2.40;99.90;;;;;;5096252;23;20066;-92
2022/01/07 19:36:47;;;;;;;11.75;8.27;;;2.30;99.90;;;;;;5006052;28;20023;-94
2022/01/07 19:39:13;;;;;;;11.82;8.13;;;2.30;99.90;;;;;;5003214;28;20037;-92
2022/01/07 19:41:41;;;;;;;14.60;9.00;;;2.30;99.90;;;;;;5013916;28;20018;-94
2022/01/07 19:44:09;;;;;;;13.45;8.70;;;2.30;99.90;;;;;;4999996;28;20042;-92
2022/01/07 19:46:40;;;;;;;12.50;8.98;;;2.30;99.90;;;;;;5012075;28;20034;-92
2022/01/07 19:49:12;;;;;;;12.63;8.50;;;2.30;99.90;;;;;;5019842;28;20028;-91
2022/01/07 19:51:38;;;;;;;15.30;9.25;;;2.30;99.90;;;;;;5020537;28;20050;-91
2022/01/07 19:54:05;;;;;;;10.95;8.23;;;2.30;99.90;;;;;;5020911;28;20030;-91
2022/01/07 19:56:33;;;;;;;12.25;8.75;;;2.30;99.90;;;;;;5000172;28;20052;-91
2022/01/07 19:58:59;;;;;;;15.35;9.93;;;2.30;99.90;;;;;;5007478;28;20113;-92
2022/01/07 20:01:26;;;;;;;16.40;10.25;;;2.30;99.90;;;;;;5009977;28;20010;-91
2022/01/07 20:03:52;;;;;;;13.07;9.02;;;2.30;99.90;;;;;;5021145;28;20006;-92
2022/01/07 20:06:18;;;;;;;13.73;9.30;;;2.30;99.90;;;;;;5006836;28;20034;-90
2022/01/07 20:09:03;;;;;;;17.80;10.40;;;2.30;99.90;;;;;;5005412;28;20021;-94
2022/01/07 20:11:29;;;;;;;14.00;9.50;;;2.30;99.90;;;;;;5018971;28;20029;-94
2022/01/07 20:13:55;;;;;;;13.85;8.88;;;2.30;99.90;;;;;;5005531;28;20026;-93
2022/01/07 20:16:21;;;;;;;16.05;9.82;;;2.30;99.90;;;;;;5017822;28;20055;-93
2022/01/07 20:18:47;;;;;;;12.40;8.57;;;2.30;99.90;;;;;;5016757;28;20018;-94
2022/01/07 20:21:15;;;;;;;13.52;8.65;;;2.30;99.90;;;;;;4998836;28;20058;-92
2022/01/07 20:23:45;;;;;;;13.40;9.13;;;2.30;99.90;;;;;;4981052;28;20084;-92
2022/01/07 20:26:13;;;;;;;12.25;8.52;;;2.30;99.90;;;;;;4989993;28;20054;-93
2022/01/07 20:28:39;;;;;;;10.63;7.55;;;2.40;99.90;;;;;;4997501;28;20113;-91
2022/01/07 20:31:05;;;;;;;13.05;7.63;;;2.30;99.90;;;;;;5014321;28;20050;-92
2022/01/07 20:33:31;;;;;;;16.88;9.00;;;2.30;99.90;;;;;;5016479;28;20065;-94
2022/01/07 20:36:00;;;;;;;14.13;8.65;;;2.30;99.90;;;;;;5011755;28;20023;-93
2022/01/07 20:38:29;;;;;;;13.60;8.52;;;2.30;99.90;;;;;;5013089;28;20053;-94
2022/01/07 20:40:58;;;;;;;15.07;8.13;;;2.30;99.90;;;;;;5017612;28;20022;-93
2022/01/07 20:43:23;;;;;;;13.02;8.70;;;2.30;99.90;;;;;;5029413;28;19999;-92
2022/01/07 20:45:50;;;;;;;12.05;8.50;;;2.30;99.90;;;;;;5024254;28;20021;-93
2022/01/07 20:48:16;;;;;;;13.80;9.23;;;2.30;99.90;;;;;;5037969;28;20108;-93
2022/01/07 20:50:43;;;;;;;17.25;10.20;;;2.30;99.90;;;;;;5023279;28;20006;-94
2022/01/07 20:53:08;;;;;;;13.32;8.85;;;2.40;99.90;;;;;;5022500;28;20018;-94